sensor_id;sensor_type;location;lat;lon;timestamp;P1;durP1;ratioP1;P2;durP2;ratioP2
22064;SDS011;11197;53.110;8.468;2022-07-17T00:00:13;7.35;;;1.75;;
22064;SDS011;11197;53.110;8.468;2022-07-17T00:02:40;5.72;;;1.70;;
22064;SDS011;11197;53.110;8.468;2022-07-17T00:05:06;7.00;;;1.98;;
22064;SDS011;11197;53.110;8.468;2022-07-17T00:07:32;7.05;;;1.98;;
22064;SDS011;11197;53.110;8.468;2022-07-17T00:09:58;4.97;;;1.70;;
22064;SDS011;11197;53.110;8.468;2022-07-17T00:12:24;6.20;;;1.90;;
22064;SDS011;11197;53.110;8.468;2022-07-17T00:14:49;6.15;;;1.90;;
22064;SDS011;11197;53.110;8.468;2022-07-17T00:17:15;7.07;;;1.60;;
22064;SDS011;11197;53.110;8.468;2022-07-17T00:19:42;6.45;;;1.75;;
22064;SDS011;11197;53.110;8.468;2022-07-17T00:22:08;5.30;;;1.60;;
22064;SDS011;11197;53.110;8.468;2022-07-17T00:24:35;6.72;;;1.88;;
22064;SDS011;11197;53.110;8.468;2022-07-17T00:27:01;11.02;;;2.03;;
22064;SDS011;11197;53.110;8.468;2022-07-17T00:29:27;5.32;;;1.92;;
22064;SDS011;11197;53.110;8.468;2022-07-17T00:31:53;4.55;;;1.63;;
22064;SDS011;11197;53.110;8.468;2022-07-17T00:34:19;9.55;;;2.25;;
22064;SDS011;11197;53.110;8.468;2022-07-17T00:36:44;5.20;;;1.67;;
22064;SDS011;11197;53.110;8.468;2022-07-17T00:39:10;6.88;;;1.75;;
22064;SDS011;11197;53.110;8.468;2022-07-17T00:41:36;4.20;;;1.60;;
22064;SDS011;11197;53.110;8.468;2022-07-17T00:44:04;6.88;;;2.17;;
22064;SDS011;11197;53.110;8.468;2022-07-17T00:46:30;6.45;;;2.00;;
22064;SDS011;11197;53.110;8.468;2022-07-17T00:48:56;5.55;;;2.05;;
22064;SDS011;11197;53.110;8.468;2022-07-17T00:51:23;6.85;;;2.05;;
22064;SDS011;11197;53.110;8.468;2022-07-17T00:53:49;6.53;;;2.13;;
22064;SDS011;11197;53.110;8.468;2022-07-17T00:56:16;8.65;;;2.40;;
22064;SDS011;11197;53.110;8.468;2022-07-17T00:58:42;6.60;;;1.90;;
22064;SDS011;11197;53.110;8.468;2022-07-17T01:01:10;6.15;;;2.08;;
22064;SDS011;11197;53.110;8.468;2022-07-17T01:03:36;7.18;;;2.33;;
22064;SDS011;11197;53.110;8.468;2022-07-17T01:06:02;9.30;;;2.28;;
22064;SDS011;11197;53.110;8.468;2022-07-17T01:08:28;6.80;;;2.22;;
22064;SDS011;11197;53.110;8.468;2022-07-17T01:10:55;9.50;;;2.17;;
22064;SDS011;11197;53.110;8.468;2022-07-17T01:13:21;6.57;;;2.22;;
22064;SDS011;11197;53.110;8.468;2022-07-17T01:15:47;6.03;;;2.03;;
22064;SDS011;11197;53.110;8.468;2022-07-17T01:18:13;6.88;;;2.20;;
22064;SDS011;11197;53.110;8.468;2022-07-17T01:20:42;5.40;;;2.25;;
22064;SDS011;11197;53.110;8.468;2022-07-17T01:23:10;7.18;;;2.58;;
22064;SDS011;11197;53.110;8.468;2022-07-17T01:25:36;6.45;;;2.53;;
22064;SDS011;11197;53.110;8.468;2022-07-17T01:28:02;7.45;;;2.60;;
22064;SDS011;11197;53.110;8.468;2022-07-17T01:30:29;6.15;;;2.30;;
22064;SDS011;11197;53.110;8.468;2022-07-17T01:32:55;6.65;;;2.30;;
22064;SDS011;11197;53.110;8.468;2022-07-17T01:35:25;9.10;;;2.33;;
22064;SDS011;11197;53.110;8.468;2022-07-17T01:37:50;4.68;;;2.13;;
22064;SDS011;11197;53.110;8.468;2022-07-17T01:40:17;5.88;;;2.53;;
22064;SDS011;11197;53.110;8.468;2022-07-17T01:42:44;7.80;;;2.15;;
22064;SDS011;11197;53.110;8.468;2022-07-17T01:45:12;7.05;;;2.08;;
22064;SDS011;11197;53.110;8.468;2022-07-17T01:47:39;7.97;;;2.53;;
22064;SDS011;11197;53.110;8.468;2022-07-17T01:50:06;5.70;;;2.35;;
22064;SDS011;11197;53.110;8.468;2022-07-17T01:52:34;7.45;;;2.10;;
22064;SDS011;11197;53.110;8.468;2022-07-17T01:55:03;7.00;;;2.42;;
22064;SDS011;11197;53.110;8.468;2022-07-17T01:57:30;9.90;;;2.42;;
22064;SDS011;11197;53.110;8.468;2022-07-17T01:59:56;5.45;;;2.30;;
22064;SDS011;11197;53.110;8.468;2022-07-17T02:02:22;8.70;;;2.53;;
22064;SDS011;11197;53.110;8.468;2022-07-17T02:04:48;4.40;;;2.17;;
22064;SDS011;11197;53.110;8.468;2022-07-17T02:07:13;8.40;;;2.50;;
22064;SDS011;11197;53.110;8.468;2022-07-17T02:09:39;5.45;;;2.17;;
22064;SDS011;11197;53.110;8.468;2022-07-17T02:12:05;6.63;;;2.50;;
22064;SDS011;11197;53.110;8.468;2022-07-17T02:14:34;10.27;;;2.55;;
22064;SDS011;11197;53.110;8.468;2022-07-17T02:17:00;7.88;;;2.58;;
22064;SDS011;11197;53.110;8.468;2022-07-17T02:19:27;7.05;;;2.30;;
22064;SDS011;11197;53.110;8.468;2022-07-17T02:21:52;8.13;;;2.53;;
22064;SDS011;11197;53.110;8.468;2022-07-17T02:24:21;8.23;;;2.30;;
22064;SDS011;11197;53.110;8.468;2022-07-17T02:26:47;7.05;;;2.53;;
22064;SDS011;11197;53.110;8.468;2022-07-17T02:29:13;6.03;;;2.45;;
22064;SDS011;11197;53.110;8.468;2022-07-17T02:31:39;6.90;;;2.45;;
22064;SDS011;11197;53.110;8.468;2022-07-17T02:34:05;7.78;;;2.33;;
22064;SDS011;11197;53.110;8.468;2022-07-17T02:36:30;8.52;;;2.60;;
22064;SDS011;11197;53.110;8.468;2022-07-17T02:38:56;6.85;;;2.42;;
22064;SDS011;11197;53.110;8.468;2022-07-17T02:41:22;9.32;;;2.70;;
22064;SDS011;11197;53.110;8.468;2022-07-17T02:43:48;4.68;;;2.25;;
22064;SDS011;11197;53.110;8.468;2022-07-17T02:46:14;8.50;;;3.13;;
22064;SDS011;11197;53.110;8.468;2022-07-17T02:48:40;7.43;;;2.50;;
22064;SDS011;11197;53.110;8.468;2022-07-17T02:51:07;6.72;;;2.50;;
22064;SDS011;11197;53.110;8.468;2022-07-17T02:53:33;7.18;;;2.50;;
22064;SDS011;11197;53.110;8.468;2022-07-17T02:55:59;6.70;;;2.90;;
22064;SDS011;11197;53.110;8.468;2022-07-17T02:58:25;7.88;;;2.85;;
22064;SDS011;11197;53.110;8.468;2022-07-17T03:00:51;5.70;;;3.03;;
22064;SDS011;11197;53.110;8.468;2022-07-17T03:03:17;10.48;;;2.90;;
22064;SDS011;11197;53.110;8.468;2022-07-17T03:05:45;6.38;;;2.88;;
22064;SDS011;11197;53.110;8.468;2022-07-17T03:08:11;6.03;;;2.70;;
22064;SDS011;11197;53.110;8.468;2022-07-17T03:10:38;6.75;;;2.60;;
22064;SDS011;11197;53.110;8.468;2022-07-17T03:13:05;8.77;;;3.00;;
22064;SDS011;11197;53.110;8.468;2022-07-17T03:15:31;7.90;;;3.20;;
22064;SDS011;11197;53.110;8.468;2022-07-17T03:17:57;9.73;;;3.25;;
22064;SDS011;11197;53.110;8.468;2022-07-17T03:20:23;8.35;;;3.10;;
22064;SDS011;11197;53.110;8.468;2022-07-17T03:22:49;10.82;;;3.05;;
22064;SDS011;11197;53.110;8.468;2022-07-17T03:25:15;7.78;;;3.22;;
22064;SDS011;11197;53.110;8.468;2022-07-17T03:27:41;8.35;;;3.22;;
22064;SDS011;11197;53.110;8.468;2022-07-17T03:30:07;8.85;;;3.65;;
22064;SDS011;11197;53.110;8.468;2022-07-17T03:32:33;10.30;;;3.70;;
22064;SDS011;11197;53.110;8.468;2022-07-17T03:34:59;9.55;;;3.20;;
22064;SDS011;11197;53.110;8.468;2022-07-17T03:37:27;9.90;;;3.20;;
22064;SDS011;11197;53.110;8.468;2022-07-17T03:39:53;7.13;;;2.90;;
22064;SDS011;11197;53.110;8.468;2022-07-17T03:42:22;7.95;;;3.20;;
22064;SDS011;11197;53.110;8.468;2022-07-17T03:44:47;9.60;;;3.05;;
22064;SDS011;11197;53.110;8.468;2022-07-17T03:47:13;5.47;;;2.92;;
22064;SDS011;11197;53.110;8.468;2022-07-17T03:49:39;7.95;;;3.00;;
22064;SDS011;11197;53.110;8.468;2022-07-17T03:52:05;9.00;;;3.42;;
22064;SDS011;11197;53.110;8.468;2022-07-17T03:54:31;6.40;;;2.67;;
22064;SDS011;11197;53.110;8.468;2022-07-17T03:56:57;5.32;;;2.97;;
22064;SDS011;11197;53.110;8.468;2022-07-17T03:59:23;7.63;;;2.88;;
22064;SDS011;11197;53.110;8.468;2022-07-17T04:01:51;5.78;;;2.90;;
22064;SDS011;11197;53.110;8.468;2022-07-17T04:04:28;6.75;;;2.92;;
22064;SDS011;11197;53.110;8.468;2022-07-17T04:06:54;7.72;;;3.20;;
22064;SDS011;11197;53.110;8.468;2022-07-17T04:09:19;6.03;;;2.50;;
22064;SDS011;11197;53.110;8.468;2022-07-17T04:11:45;11.90;;;3.83;;
22064;SDS011;11197;53.110;8.468;2022-07-17T04:14:11;7.78;;;3.40;;
22064;SDS011;11197;53.110;8.468;2022-07-17T04:16:37;7.07;;;2.97;;
22064;SDS011;11197;53.110;8.468;2022-07-17T04:19:03;6.15;;;3.38;;
22064;SDS011;11197;53.110;8.468;2022-07-17T04:21:29;7.45;;;3.47;;
22064;SDS011;11197;53.110;8.468;2022-07-17T04:23:54;7.63;;;3.28;;
22064;SDS011;11197;53.110;8.468;2022-07-17T04:26:20;8.70;;;3.45;;
22064;SDS011;11197;53.110;8.468;2022-07-17T04:28:46;7.22;;;3.28;;
22064;SDS011;11197;53.110;8.468;2022-07-17T04:31:12;7.18;;;3.45;;
22064;SDS011;11197;53.110;8.468;2022-07-17T04:33:38;7.20;;;3.20;;
22064;SDS011;11197;53.110;8.468;2022-07-17T04:36:04;8.90;;;3.47;;
22064;SDS011;11197;53.110;8.468;2022-07-17T04:38:30;8.70;;;3.55;;
22064;SDS011;11197;53.110;8.468;2022-07-17T04:40:55;8.25;;;3.50;;
22064;SDS011;11197;53.110;8.468;2022-07-17T04:43:22;7.50;;;3.70;;
22064;SDS011;11197;53.110;8.468;2022-07-17T04:45:48;7.55;;;3.10;;
22064;SDS011;11197;53.110;8.468;2022-07-17T04:48:14;7.70;;;3.70;;
22064;SDS011;11197;53.110;8.468;2022-07-17T04:50:39;8.95;;;3.45;;
22064;SDS011;11197;53.110;8.468;2022-07-17T04:53:05;8.25;;;3.78;;
22064;SDS011;11197;53.110;8.468;2022-07-17T04:55:31;8.32;;;3.55;;
22064;SDS011;11197;53.110;8.468;2022-07-17T04:57:57;7.82;;;3.80;;
22064;SDS011;11197;53.110;8.468;2022-07-17T05:00:23;9.10;;;3.35;;
22064;SDS011;11197;53.110;8.468;2022-07-17T05:02:49;9.55;;;3.50;;
22064;SDS011;11197;53.110;8.468;2022-07-17T05:05:14;8.70;;;3.53;;
22064;SDS011;11197;53.110;8.468;2022-07-17T05:07:40;9.32;;;4.03;;
22064;SDS011;11197;53.110;8.468;2022-07-17T05:10:06;8.07;;;3.70;;
22064;SDS011;11197;53.110;8.468;2022-07-17T05:12:34;8.95;;;3.92;;
22064;SDS011;11197;53.110;8.468;2022-07-17T05:15:00;8.98;;;3.85;;
22064;SDS011;11197;53.110;8.468;2022-07-17T05:17:26;9.98;;;3.70;;
22064;SDS011;11197;53.110;8.468;2022-07-17T05:19:52;6.60;;;3.22;;
22064;SDS011;11197;53.110;8.468;2022-07-17T05:22:18;10.88;;;4.10;;
22064;SDS011;11197;53.110;8.468;2022-07-17T05:24:43;7.05;;;3.38;;
22064;SDS011;11197;53.110;8.468;2022-07-17T05:27:09;9.48;;;3.70;;
22064;SDS011;11197;53.110;8.468;2022-07-17T05:29:35;6.28;;;3.20;;
22064;SDS011;11197;53.110;8.468;2022-07-17T05:32:01;8.50;;;4.28;;
22064;SDS011;11197;53.110;8.468;2022-07-17T05:34:28;9.52;;;3.20;;
22064;SDS011;11197;53.110;8.468;2022-07-17T05:36:53;9.27;;;3.85;;
22064;SDS011;11197;53.110;8.468;2022-07-17T05:39:19;9.00;;;3.95;;
22064;SDS011;11197;53.110;8.468;2022-07-17T05:41:45;6.53;;;3.33;;
22064;SDS011;11197;53.110;8.468;2022-07-17T05:44:11;11.85;;;4.00;;
22064;SDS011;11197;53.110;8.468;2022-07-17T05:46:37;7.03;;;3.72;;
22064;SDS011;11197;53.110;8.468;2022-07-17T05:49:03;11.15;;;4.07;;
22064;SDS011;11197;53.110;8.468;2022-07-17T05:51:28;8.48;;;3.22;;
22064;SDS011;11197;53.110;8.468;2022-07-17T05:53:54;9.00;;;4.13;;
22064;SDS011;11197;53.110;8.468;2022-07-17T05:56:20;9.45;;;3.90;;
22064;SDS011;11197;53.110;8.468;2022-07-17T05:58:46;9.57;;;4.07;;
22064;SDS011;11197;53.110;8.468;2022-07-17T06:01:11;8.57;;;3.42;;
22064;SDS011;11197;53.110;8.468;2022-07-17T06:03:37;6.28;;;3.47;;
22064;SDS011;11197;53.110;8.468;2022-07-17T06:06:03;10.73;;;4.03;;
22064;SDS011;11197;53.110;8.468;2022-07-17T06:08:29;11.85;;;3.53;;
22064;SDS011;11197;53.110;8.468;2022-07-17T06:10:55;9.38;;;3.70;;
22064;SDS011;11197;53.110;8.468;2022-07-17T06:13:21;9.50;;;3.35;;
22064;SDS011;11197;53.110;8.468;2022-07-17T06:15:47;10.60;;;3.72;;
22064;SDS011;11197;53.110;8.468;2022-07-17T06:18:13;8.60;;;3.70;;
22064;SDS011;11197;53.110;8.468;2022-07-17T06:20:39;9.27;;;3.80;;
22064;SDS011;11197;53.110;8.468;2022-07-17T06:23:04;14.48;;;3.80;;
22064;SDS011;11197;53.110;8.468;2022-07-17T06:25:30;7.63;;;3.60;;
22064;SDS011;11197;53.110;8.468;2022-07-17T06:27:56;9.32;;;3.53;;
22064;SDS011;11197;53.110;8.468;2022-07-17T06:30:22;9.98;;;3.30;;
22064;SDS011;11197;53.110;8.468;2022-07-17T06:32:48;8.35;;;3.15;;
22064;SDS011;11197;53.110;8.468;2022-07-17T06:35:13;7.05;;;3.15;;
22064;SDS011;11197;53.110;8.468;2022-07-17T06:37:39;10.13;;;3.08;;
22064;SDS011;11197;53.110;8.468;2022-07-17T06:40:05;7.05;;;2.90;;
22064;SDS011;11197;53.110;8.468;2022-07-17T06:42:32;9.63;;;3.00;;
22064;SDS011;11197;53.110;8.468;2022-07-17T06:44:59;8.50;;;3.05;;
22064;SDS011;11197;53.110;8.468;2022-07-17T06:47:25;6.75;;;2.45;;
22064;SDS011;11197;53.110;8.468;2022-07-17T06:49:50;8.32;;;2.80;;
22064;SDS011;11197;53.110;8.468;2022-07-17T06:52:16;6.20;;;2.38;;
22064;SDS011;11197;53.110;8.468;2022-07-17T06:54:42;9.63;;;2.33;;
22064;SDS011;11197;53.110;8.468;2022-07-17T06:57:08;7.82;;;2.45;;
22064;SDS011;11197;53.110;8.468;2022-07-17T06:59:33;9.63;;;2.30;;
22064;SDS011;11197;53.110;8.468;2022-07-17T07:02:02;7.60;;;2.08;;
22064;SDS011;11197;53.110;8.468;2022-07-17T07:04:28;7.85;;;1.90;;
22064;SDS011;11197;53.110;8.468;2022-07-17T07:06:54;7.30;;;1.75;;
22064;SDS011;11197;53.110;8.468;2022-07-17T07:09:20;7.55;;;1.90;;
22064;SDS011;11197;53.110;8.468;2022-07-17T07:11:46;7.25;;;1.73;;
22064;SDS011;11197;53.110;8.468;2022-07-17T07:14:11;6.82;;;1.42;;
22064;SDS011;11197;53.110;8.468;2022-07-17T07:16:37;6.25;;;1.42;;
22064;SDS011;11197;53.110;8.468;2022-07-17T07:19:03;5.00;;;1.30;;
22064;SDS011;11197;53.110;8.468;2022-07-17T07:21:29;7.57;;;1.42;;
22064;SDS011;11197;53.110;8.468;2022-07-17T07:23:55;8.48;;;1.45;;
22064;SDS011;11197;53.110;8.468;2022-07-17T07:26:22;6.28;;;1.30;;
22064;SDS011;11197;53.110;8.468;2022-07-17T07:28:48;6.43;;;1.40;;
22064;SDS011;11197;53.110;8.468;2022-07-17T07:31:14;7.78;;;1.40;;
22064;SDS011;11197;53.110;8.468;2022-07-17T07:33:42;7.15;;;1.33;;
22064;SDS011;11197;53.110;8.468;2022-07-17T07:36:08;7.93;;;1.35;;
22064;SDS011;11197;53.110;8.468;2022-07-17T07:38:34;4.75;;;1.02;;
22064;SDS011;11197;53.110;8.468;2022-07-17T07:41:00;7.05;;;1.60;;
22064;SDS011;11197;53.110;8.468;2022-07-17T07:43:26;8.27;;;1.42;;
22064;SDS011;11197;53.110;8.468;2022-07-17T07:45:52;5.97;;;1.30;;
22064;SDS011;11197;53.110;8.468;2022-07-17T07:48:18;5.65;;;1.33;;
22064;SDS011;11197;53.110;8.468;2022-07-17T07:50:44;9.20;;;1.50;;
22064;SDS011;11197;53.110;8.468;2022-07-17T07:53:11;8.18;;;1.40;;
22064;SDS011;11197;53.110;8.468;2022-07-17T07:55:36;6.63;;;1.10;;
22064;SDS011;11197;53.110;8.468;2022-07-17T07:58:07;5.43;;;0.98;;
22064;SDS011;11197;53.110;8.468;2022-07-17T08:00:35;4.60;;;1.27;;
22064;SDS011;11197;53.110;8.468;2022-07-17T08:03:02;6.20;;;1.13;;
22064;SDS011;11197;53.110;8.468;2022-07-17T08:05:29;6.45;;;1.17;;
22064;SDS011;11197;53.110;8.468;2022-07-17T08:07:55;5.20;;;1.10;;
22064;SDS011;11197;53.110;8.468;2022-07-17T08:10:21;5.80;;;1.13;;
22064;SDS011;11197;53.110;8.468;2022-07-17T08:12:47;5.78;;;1.00;;
22064;SDS011;11197;53.110;8.468;2022-07-17T08:15:15;7.95;;;1.00;;
22064;SDS011;11197;53.110;8.468;2022-07-17T08:17:43;7.13;;;1.15;;
22064;SDS011;11197;53.110;8.468;2022-07-17T08:20:10;7.88;;;1.13;;
22064;SDS011;11197;53.110;8.468;2022-07-17T08:22:36;5.45;;;1.13;;
22064;SDS011;11197;53.110;8.468;2022-07-17T08:25:02;4.75;;;0.90;;
22064;SDS011;11197;53.110;8.468;2022-07-17T08:27:34;6.80;;;1.20;;
22064;SDS011;11197;53.110;8.468;2022-07-17T08:30:01;4.18;;;1.08;;
22064;SDS011;11197;53.110;8.468;2022-07-17T08:32:31;6.07;;;1.17;;
22064;SDS011;11197;53.110;8.468;2022-07-17T08:34:58;7.10;;;1.27;;
22064;SDS011;11197;53.110;8.468;2022-07-17T08:37:24;8.07;;;1.13;;
22064;SDS011;11197;53.110;8.468;2022-07-17T08:39:50;5.32;;;1.20;;
22064;SDS011;11197;53.110;8.468;2022-07-17T08:42:16;3.83;;;0.95;;
22064;SDS011;11197;53.110;8.468;2022-07-17T08:44:43;6.20;;;1.02;;
22064;SDS011;11197;53.110;8.468;2022-07-17T08:47:13;4.43;;;1.10;;
22064;SDS011;11197;53.110;8.468;2022-07-17T08:49:44;7.13;;;1.17;;
22064;SDS011;11197;53.110;8.468;2022-07-17T08:52:11;7.35;;;1.15;;
22064;SDS011;11197;53.110;8.468;2022-07-17T08:54:38;9.75;;;1.33;;
22064;SDS011;11197;53.110;8.468;2022-07-17T08:57:04;4.18;;;1.02;;
22064;SDS011;11197;53.110;8.468;2022-07-17T08:59:30;7.82;;;1.50;;
22064;SDS011;11197;53.110;8.468;2022-07-17T09:02:00;8.75;;;1.20;;
22064;SDS011;11197;53.110;8.468;2022-07-17T09:04:27;5.78;;;1.15;;
22064;SDS011;11197;53.110;8.468;2022-07-17T09:07:00;7.22;;;1.60;;
22064;SDS011;11197;53.110;8.468;2022-07-17T09:09:29;4.57;;;1.17;;
22064;SDS011;11197;53.110;8.468;2022-07-17T09:11:56;5.20;;;1.27;;
22064;SDS011;11197;53.110;8.468;2022-07-17T09:14:36;5.30;;;0.90;;
22064;SDS011;11197;53.110;8.468;2022-07-17T09:17:04;7.07;;;1.10;;
22064;SDS011;11197;53.110;8.468;2022-07-17T09:19:34;3.90;;;1.05;;
22064;SDS011;11197;53.110;8.468;2022-07-17T09:24:41;6.35;;;1.25;;
22064;SDS011;11197;53.110;8.468;2022-07-17T09:27:10;5.03;;;0.98;;
22064;SDS011;11197;53.110;8.468;2022-07-17T09:32:39;5.35;;;1.17;;
22064;SDS011;11197;53.110;8.468;2022-07-17T09:35:07;5.70;;;1.10;;
22064;SDS011;11197;53.110;8.468;2022-07-17T09:37:35;6.60;;;0.95;;
22064;SDS011;11197;53.110;8.468;2022-07-17T09:40:08;3.63;;;0.80;;
22064;SDS011;11197;53.110;8.468;2022-07-17T09:42:35;4.20;;;0.90;;
22064;SDS011;11197;53.110;8.468;2022-07-17T09:45:04;4.38;;;0.93;;
22064;SDS011;11197;53.110;8.468;2022-07-17T09:47:33;5.50;;;1.00;;
22064;SDS011;11197;53.110;8.468;2022-07-17T09:50:01;5.88;;;1.25;;
22064;SDS011;11197;53.110;8.468;2022-07-17T09:52:30;3.78;;;0.90;;
22064;SDS011;11197;53.110;8.468;2022-07-17T09:55:00;5.00;;;1.05;;
22064;SDS011;11197;53.110;8.468;2022-07-17T09:57:27;5.00;;;1.20;;
22064;SDS011;11197;53.110;8.468;2022-07-17T09:59:56;5.80;;;1.00;;
22064;SDS011;11197;53.110;8.468;2022-07-17T10:02:24;6.07;;;1.00;;
22064;SDS011;11197;53.110;8.468;2022-07-17T10:04:51;5.07;;;1.08;;
22064;SDS011;11197;53.110;8.468;2022-07-17T10:07:18;3.92;;;1.17;;
22064;SDS011;11197;53.110;8.468;2022-07-17T10:09:45;6.47;;;1.50;;
22064;SDS011;11197;53.110;8.468;2022-07-17T10:12:11;5.25;;;1.25;;
22064;SDS011;11197;53.110;8.468;2022-07-17T10:14:39;7.00;;;1.23;;
22064;SDS011;11197;53.110;8.468;2022-07-17T10:17:07;4.53;;;1.23;;
22064;SDS011;11197;53.110;8.468;2022-07-17T10:19:47;3.50;;;1.38;;
22064;SDS011;11197;53.110;8.468;2022-07-17T10:22:19;6.05;;;1.00;;
22064;SDS011;11197;53.110;8.468;2022-07-17T10:24:46;3.10;;;1.13;;
22064;SDS011;11197;53.110;8.468;2022-07-17T10:27:30;6.43;;;1.10;;
22064;SDS011;11197;53.110;8.468;2022-07-17T10:32:26;5.85;;;1.33;;
22064;SDS011;11197;53.110;8.468;2022-07-17T10:34:54;3.30;;;1.00;;
22064;SDS011;11197;53.110;8.468;2022-07-17T10:37:38;4.03;;;1.20;;
22064;SDS011;11197;53.110;8.468;2022-07-17T10:48:04;4.53;;;1.10;;
22064;SDS011;11197;53.110;8.468;2022-07-17T10:50:33;5.40;;;1.45;;
22064;SDS011;11197;53.110;8.468;2022-07-17T10:53:09;4.82;;;1.30;;
22064;SDS011;11197;53.110;8.468;2022-07-17T10:55:36;4.13;;;1.13;;
22064;SDS011;11197;53.110;8.468;2022-07-17T10:58:27;5.35;;;1.10;;
22064;SDS011;11197;53.110;8.468;2022-07-17T11:00:58;6.43;;;1.25;;
22064;SDS011;11197;53.110;8.468;2022-07-17T11:03:27;3.55;;;1.05;;
22064;SDS011;11197;53.110;8.468;2022-07-17T11:05:53;3.97;;;1.20;;
22064;SDS011;11197;53.110;8.468;2022-07-17T11:08:20;6.10;;;1.42;;
22064;SDS011;11197;53.110;8.468;2022-07-17T11:10:47;4.07;;;1.20;;
22064;SDS011;11197;53.110;8.468;2022-07-17T11:13:14;5.95;;;1.40;;
22064;SDS011;11197;53.110;8.468;2022-07-17T11:15:45;8.25;;;1.33;;
22064;SDS011;11197;53.110;8.468;2022-07-17T11:18:16;3.95;;;0.90;;
22064;SDS011;11197;53.110;8.468;2022-07-17T11:20:47;6.03;;;1.25;;
22064;SDS011;11197;53.110;8.468;2022-07-17T11:23:17;5.75;;;1.20;;
22064;SDS011;11197;53.110;8.468;2022-07-17T11:25:57;5.03;;;1.10;;
22064;SDS011;11197;53.110;8.468;2022-07-17T11:30:57;5.03;;;1.13;;
22064;SDS011;11197;53.110;8.468;2022-07-17T11:36:59;4.20;;;1.20;;
22064;SDS011;11197;53.110;8.468;2022-07-17T11:43:14;6.65;;;1.23;;
22064;SDS011;11197;53.110;8.468;2022-07-17T11:45:43;5.07;;;1.10;;
22064;SDS011;11197;53.110;8.468;2022-07-17T11:48:10;4.28;;;1.27;;
22064;SDS011;11197;53.110;8.468;2022-07-17T11:50:52;6.80;;;1.42;;
22064;SDS011;11197;53.110;8.468;2022-07-17T11:53:30;3.97;;;1.00;;
22064;SDS011;11197;53.110;8.468;2022-07-17T11:57:07;8.00;;;1.27;;
22064;SDS011;11197;53.110;8.468;2022-07-17T11:59:33;4.03;;;1.20;;
22064;SDS011;11197;53.110;8.468;2022-07-17T12:02:09;4.43;;;1.05;;
22064;SDS011;11197;53.110;8.468;2022-07-17T12:07:16;5.60;;;1.20;;
22064;SDS011;11197;53.110;8.468;2022-07-17T12:09:42;4.80;;;1.05;;
22064;SDS011;11197;53.110;8.468;2022-07-17T12:12:17;4.50;;;1.05;;
22064;SDS011;11197;53.110;8.468;2022-07-17T12:14:50;4.40;;;1.02;;
22064;SDS011;11197;53.110;8.468;2022-07-17T12:17:23;5.53;;;1.00;;
22064;SDS011;11197;53.110;8.468;2022-07-17T12:19:50;3.65;;;0.95;;
22064;SDS011;11197;53.110;8.468;2022-07-17T12:22:17;5.55;;;1.27;;
22064;SDS011;11197;53.110;8.468;2022-07-17T12:24:45;4.43;;;0.98;;
22064;SDS011;11197;53.110;8.468;2022-07-17T12:27:15;4.18;;;1.10;;
22064;SDS011;11197;53.110;8.468;2022-07-17T12:29:43;3.35;;;0.90;;
22064;SDS011;11197;53.110;8.468;2022-07-17T12:32:16;3.65;;;1.10;;
22064;SDS011;11197;53.110;8.468;2022-07-17T12:34:44;5.82;;;1.33;;
22064;SDS011;11197;53.110;8.468;2022-07-17T12:37:18;6.50;;;1.20;;
22064;SDS011;11197;53.110;8.468;2022-07-17T12:39:47;4.10;;;1.13;;
22064;SDS011;11197;53.110;8.468;2022-07-17T12:42:15;5.63;;;1.17;;
22064;SDS011;11197;53.110;8.468;2022-07-17T12:44:41;3.58;;;1.10;;
22064;SDS011;11197;53.110;8.468;2022-07-17T12:47:08;4.68;;;0.90;;
22064;SDS011;11197;53.110;8.468;2022-07-17T12:49:35;2.97;;;1.05;;
22064;SDS011;11197;53.110;8.468;2022-07-17T12:52:01;5.20;;;1.20;;
22064;SDS011;11197;53.110;8.468;2022-07-17T12:54:27;2.97;;;0.93;;
22064;SDS011;11197;53.110;8.468;2022-07-17T12:56:54;3.28;;;0.95;;
22064;SDS011;11197;53.110;8.468;2022-07-17T12:59:19;3.58;;;1.00;;
22064;SDS011;11197;53.110;8.468;2022-07-17T13:01:46;3.95;;;1.08;;
22064;SDS011;11197;53.110;8.468;2022-07-17T13:04:13;4.75;;;1.17;;
22064;SDS011;11197;53.110;8.468;2022-07-17T13:06:39;4.80;;;1.15;;
22064;SDS011;11197;53.110;8.468;2022-07-17T13:09:05;2.78;;;1.20;;
22064;SDS011;11197;53.110;8.468;2022-07-17T13:15:18;2.72;;;1.10;;
22064;SDS011;11197;53.110;8.468;2022-07-17T13:17:44;3.80;;;1.00;;
22064;SDS011;11197;53.110;8.468;2022-07-17T13:20:10;5.28;;;1.17;;
22064;SDS011;11197;53.110;8.468;2022-07-17T13:22:37;3.80;;;1.13;;
22064;SDS011;11197;53.110;8.468;2022-07-17T13:25:04;3.58;;;1.25;;
22064;SDS011;11197;53.110;8.468;2022-07-17T13:27:30;3.00;;;0.88;;
22064;SDS011;11197;53.110;8.468;2022-07-17T13:29:56;4.93;;;1.20;;
22064;SDS011;11197;53.110;8.468;2022-07-17T13:32:22;3.30;;;1.00;;
22064;SDS011;11197;53.110;8.468;2022-07-17T13:34:49;4.93;;;1.15;;
22064;SDS011;11197;53.110;8.468;2022-07-17T13:37:16;3.88;;;1.02;;
22064;SDS011;11197;53.110;8.468;2022-07-17T13:39:42;3.85;;;1.05;;
22064;SDS011;11197;53.110;8.468;2022-07-17T13:42:08;6.05;;;1.50;;
22064;SDS011;11197;53.110;8.468;2022-07-17T13:44:34;3.05;;;1.00;;
22064;SDS011;11197;53.110;8.468;2022-07-17T13:47:00;3.10;;;0.93;;
22064;SDS011;11197;53.110;8.468;2022-07-17T13:49:26;4.63;;;1.20;;
22064;SDS011;11197;53.110;8.468;2022-07-17T13:51:51;4.07;;;1.10;;
22064;SDS011;11197;53.110;8.468;2022-07-17T13:54:17;2.92;;;1.10;;
22064;SDS011;11197;53.110;8.468;2022-07-17T13:56:43;4.80;;;1.30;;
22064;SDS011;11197;53.110;8.468;2022-07-17T13:59:09;4.35;;;1.35;;
22064;SDS011;11197;53.110;8.468;2022-07-17T14:01:35;4.13;;;1.80;;
22064;SDS011;11197;53.110;8.468;2022-07-17T14:04:01;5.32;;;1.40;;
22064;SDS011;11197;53.110;8.468;2022-07-17T14:06:27;4.72;;;1.30;;
22064;SDS011;11197;53.110;8.468;2022-07-17T14:08:53;4.63;;;1.25;;
22064;SDS011;11197;53.110;8.468;2022-07-17T14:11:19;2.42;;;1.00;;
22064;SDS011;11197;53.110;8.468;2022-07-17T14:13:44;3.58;;;1.23;;
22064;SDS011;11197;53.110;8.468;2022-07-17T14:16:10;2.50;;;1.10;;
22064;SDS011;11197;53.110;8.468;2022-07-17T14:18:37;4.10;;;1.30;;
22064;SDS011;11197;53.110;8.468;2022-07-17T14:21:23;3.92;;;1.30;;
22064;SDS011;11197;53.110;8.468;2022-07-17T14:23:53;3.63;;;1.38;;
22064;SDS011;11197;53.110;8.468;2022-07-17T14:26:19;4.55;;;1.50;;
22064;SDS011;11197;53.110;8.468;2022-07-17T14:28:44;4.57;;;1.58;;
22064;SDS011;11197;53.110;8.468;2022-07-17T14:31:10;3.03;;;1.50;;
22064;SDS011;11197;53.110;8.468;2022-07-17T14:33:36;4.40;;;1.50;;
22064;SDS011;11197;53.110;8.468;2022-07-17T14:36:02;3.55;;;1.58;;
22064;SDS011;11197;53.110;8.468;2022-07-17T14:38:29;4.18;;;1.63;;
22064;SDS011;11197;53.110;8.468;2022-07-17T14:40:55;3.90;;;1.40;;
22064;SDS011;11197;53.110;8.468;2022-07-17T14:43:21;5.10;;;1.50;;
22064;SDS011;11197;53.110;8.468;2022-07-17T14:45:47;4.47;;;1.60;;
22064;SDS011;11197;53.110;8.468;2022-07-17T14:48:13;4.65;;;1.40;;
22064;SDS011;11197;53.110;8.468;2022-07-17T14:50:39;4.50;;;1.52;;
22064;SDS011;11197;53.110;8.468;2022-07-17T14:53:05;3.75;;;1.50;;
22064;SDS011;11197;53.110;8.468;2022-07-17T14:55:31;3.53;;;1.70;;
22064;SDS011;11197;53.110;8.468;2022-07-17T14:57:57;5.47;;;2.08;;
22064;SDS011;11197;53.110;8.468;2022-07-17T15:00:22;4.18;;;1.70;;
22064;SDS011;11197;53.110;8.468;2022-07-17T15:02:48;4.43;;;1.80;;
22064;SDS011;11197;53.110;8.468;2022-07-17T15:05:14;4.20;;;1.90;;
22064;SDS011;11197;53.110;8.468;2022-07-17T15:07:40;3.95;;;1.88;;
22064;SDS011;11197;53.110;8.468;2022-07-17T15:10:06;5.18;;;2.08;;
22064;SDS011;11197;53.110;8.468;2022-07-17T15:12:33;4.22;;;2.00;;
22064;SDS011;11197;53.110;8.468;2022-07-17T15:14:59;3.92;;;1.85;;
22064;SDS011;11197;53.110;8.468;2022-07-17T15:17:24;4.43;;;1.58;;
22064;SDS011;11197;53.110;8.468;2022-07-17T15:19:50;5.03;;;2.25;;